Terminal Aerodrome Forecast
Issued by NWS Green Bay, WI

Home | Current Version | Previous Version | Graphics & Text | Print | Product List | Glossary On
Versions: 1 2 3 4 5 6 7 8 9 10 11 12 13 14 15 16 17 18 19 20 21 22 23 24 25 26 27 28 29 30 31 32 33 34 35 36 37 38 39 40 41
000
FTUS43 KGRB 220200 AAA
TAFGRB
TAF AMD
KGRB 220221Z 2202/2224 09006KT 6SM BR OVC006
      TEMPO 2202/2204 4SM BR
     FM220400 VRB03KT 3SM BR BKN004 OVC020
     FM220700 VRB03KT 1SM BR OVC003
     FM221400 05005KT 4SM BR SCT006 BKN012
     FM221800 07006KT 6SM HZ BKN025 BKN040
     FM222200 07006KT 6SM HZ SCT025=

USA.gov is the U.S. government's official web portal to all federal, state and local government web resources and services.